Time;durP1;ratioP1;P1;durP2;ratioP2;P2;SDS_P1;SDS_P2;PMS_P1;PMS_P2;Temp;Humidity;BMP_temperature;BMP_pressure;BME280_temperature;BME280_humidity;BME280_pressure;Samples;Min_cycle;Max_cycle;Signal;HPM_P1;HPM_P2
2022/10/13 00:00:00;;;;;;;25.65;8.13;;;;;;;10.03;82.90;101874.03;4762420;29;20418;-61
2022/10/13 00:02:44;;;;;;;21.17;7.43;;;;;;;10.13;81.95;101866.34;4836024;28;20057;-63
2022/10/13 00:05:34;;;;;;;28.77;7.70;;;;;;;10.29;81.69;101864.78;4913392;28;20037;-62
2022/10/13 00:08:25;;;;;;;18.50;6.38;;;;;;;10.35;80.49;101869.19;4873295;28;20058;-61
2022/10/13 00:10:59;;;;;;;13.05;5.40;;;;;;;10.44;79.86;101863.19;4866956;28;20054;-61
2022/10/13 00:13:44;;;;;;;18.77;5.80;;;;;;;10.62;80.17;101863.34;4866750;28;20069;-59
2022/10/13 00:16:28;;;;;;;13.50;4.68;;;;;;;10.74;78.61;101853.00;4873784;28;20045;-60
2022/10/13 00:19:12;;;;;;;14.85;5.35;;;;;;;10.85;78.67;101860.06;4878995;28;21648;-62
2022/10/13 00:21:48;;;;;;;15.90;4.72;;;;;;;10.97;78.11;101855.81;4882840;28;20049;-60
2022/10/13 00:24:41;;;;;;;13.82;4.25;;;;;;;11.06;76.96;101844.53;4887136;28;20037;-61
2022/10/13 00:27:33;;;;;;;10.67;4.43;;;;;;;11.17;76.75;101848.09;4875818;28;20048;-61
2022/10/13 00:30:29;;;;;;;12.15;4.20;;;;;;;11.23;76.26;101837.69;4896805;28;20834;-60
2022/10/13 00:33:24;;;;;;;18.70;4.72;;;;;;;11.32;76.43;101835.97;4920377;28;20041;-60
2022/10/13 00:36:01;;;;;;;15.30;4.68;;;;;;;11.42;76.01;101837.78;4928797;28;20044;-60
2022/10/13 00:38:39;;;;;;;10.88;4.70;;;;;;;11.59;76.68;101841.34;4908620;28;20075;-60
2022/10/13 00:41:26;;;;;;;10.88;3.92;;;;;;;11.71;75.25;101834.44;4928065;28;20049;-60
2022/10/13 00:44:46;;;;;;;26.88;5.90;;;;;;;11.85;74.05;101822.25;4906928;28;20430;-60
2022/10/13 00:47:26;;;;;;;17.83;4.10;;;;;;;11.96;73.67;101820.56;4919128;28;20063;-61
2022/10/13 00:50:47;;;;;;;18.85;5.57;;;;;;;12.05;72.81;101804.84;4897407;28;20055;-60
2022/10/13 00:53:31;;;;;;;14.90;4.90;;;;;;;12.22;71.89;101806.66;4843169;28;20048;-61
2022/10/13 00:56:20;;;;;;;12.25;4.45;;;;;;;12.28;71.29;101806.66;4939187;28;20048;-60
2022/10/13 00:59:05;;;;;;;10.07;3.42;;;;;;;12.30;70.55;101794.41;4893434;28;20049;-62
2022/10/13 01:01:51;;;;;;;6.38;2.80;;;;;;;12.37;69.75;101790.94;4900299;28;20065;-62
2022/10/13 01:05:11;;;;;;;9.32;3.05;;;;;;;12.38;69.38;101792.72;4936529;28;20122;-61
2022/10/13 01:08:13;;;;;;;7.10;2.60;;;;;;;12.49;69.56;101785.69;4891845;28;20121;-61
2022/10/13 01:11:06;;;;;;;6.72;3.05;;;;;;;12.41;70.23;101745.50;4858661;28;20060;-62
2022/10/13 01:14:04;;;;;;;4.65;2.85;;;;;;;12.76;68.94;101768.22;4892550;28;20051;-63
2022/10/13 01:17:18;;;;;;;10.57;3.08;;;;;;;12.74;68.50;101780.44;4913160;28;20062;-60
2022/10/13 01:20:42;;;;;;;7.00;3.05;;;;;;;12.80;68.06;101769.94;4897209;28;20049;-63
2022/10/13 01:23:54;;;;;;;6.97;2.70;;;;;;;12.80;67.08;101764.69;4854339;28;20074;-62
2022/10/13 01:27:21;;;;;;;8.98;2.78;;;;;;;12.92;67.43;101754.16;4875326;28;20066;-62
2022/10/13 01:30:23;;;;;;;3.20;2.58;;;;;;;12.93;67.18;101755.94;4866581;28;20114;-60
2022/10/13 01:33:38;;;;;;;6.63;2.65;;;;;;;13.13;67.40;101741.91;4836527;28;20046;-61
2022/10/13 01:36:28;;;;;;;12.18;3.95;;;;;;;13.29;66.85;101742.72;4878743;28;20059;-61
2022/10/13 01:39:51;;;;;;;9.30;3.42;;;;;;;13.33;65.79;101750.59;4815588;28;20055;-61
2022/10/13 01:42:50;;;;;;;9.88;2.88;;;;;;;13.45;66.22;101754.03;4864112;28;20059;-63
2022/10/13 01:45:39;;;;;;;7.65;2.88;;;;;;;13.52;65.94;101743.50;4874874;28;20080;-61
2022/10/13 01:48:16;;;;;;;3.75;2.22;;;;;;;13.60;64.28;101748.69;4869791;28;20051;-61
2022/10/13 01:51:13;;;;;;;6.35;2.45;;;;;;;13.70;63.83;101737.25;4860358;28;20048;-62
2022/10/13 01:54:00;;;;;;;5.68;2.38;;;;;;;13.70;63.70;101729.38;4855418;28;20047;-60
2022/10/13 01:56:46;;;;;;;3.58;2.00;;;;;;;13.90;63.31;101741.53;4860578;28;20069;-60
2022/10/13 01:59:29;;;;;;;3.90;1.90;;;;;;;13.96;61.89;101736.25;4830603;28;20048;-61
2022/10/13 02:05:38;;;;;;;4.35;1.95;;;;;;;13.66;60.46;101669.88;4867398;28;20049;-62
2022/10/13 02:11:19;;;;;;;4.43;1.90;;;;;;;14.02;60.09;101715.16;4914486;28;20046;-61
2022/10/13 02:14:04;;;;;;;4.78;2.20;;;;;;;13.98;60.36;101700.31;4919041;28;20120;-60
2022/10/13 02:16:43;;;;;;;5.03;2.40;;;;;;;14.04;60.75;101708.16;4899109;28;20044;-60
2022/10/13 02:19:21;;;;;;;6.60;2.60;;;;;;;14.03;61.02;101701.16;4906216;28;20052;-61
2022/10/13 02:22:02;;;;;;;4.93;2.03;;;;;;;14.04;60.93;101697.63;4914072;28;20074;-61
2022/10/13 02:24:53;;;;;;;4.60;2.38;;;;;;;14.10;61.08;101696.72;4897970;28;20138;-62
2022/10/13 02:27:45;;;;;;;6.18;2.17;;;;;;;13.95;60.92;101656.56;4891897;28;20185;-61
2022/10/13 02:30:31;;;;;;;11.27;3.00;;;;;;;14.08;60.40;101646.81;4873456;28;20139;-62
2022/10/13 02:33:20;;;;;;;5.63;2.60;;;;;;;14.33;60.26;101672.88;4909914;28;20327;-60
2022/10/13 02:36:18;;;;;;;7.10;3.67;;;;;;;14.34;60.54;101674.59;4908441;28;20076;-61
2022/10/13 02:39:18;;;;;;;10.02;6.43;;;;;;;14.39;60.02;101657.03;4885827;28;20076;-61
2022/10/13 02:41:57;;;;;;;6.35;2.80;;;;;;;14.41;58.96;101660.50;4912309;28;20055;-60
2022/10/13 02:44:44;;;;;;;5.93;2.60;;;;;;;14.45;59.48;101651.69;4902240;28;20044;-62
2022/10/13 02:47:37;;;;;;;3.65;2.45;;;;;;;14.41;58.69;101650.00;4870743;28;20285;-61
2022/10/13 02:50:24;;;;;;;8.18;3.83;;;;;;;14.57;59.30;101643.69;4878942;28;20045;-62
2022/10/13 02:53:10;;;;;;;4.50;3.00;;;;;;;14.60;59.23;101640.16;4882326;28;20049;-61
2022/10/13 02:55:55;;;;;;;4.77;3.33;;;;;;;14.66;58.86;101627.81;4887043;28;20425;-61
2022/10/13 02:58:36;;;;;;;6.85;2.50;;;;;;;14.63;58.50;101625.25;4904380;28;20579;-60
2022/10/13 03:01:19;;;;;;;5.90;2.30;;;;;;;14.65;59.00;101617.31;4920129;28;20045;-61
2022/10/13 03:03:53;;;;;;;;;;;;;;;14.72;59.30;101618.13;4921053;28;20287;-63
2022/10/13 03:06:43;;;;;;;4.60;2.13;;;;;;;14.72;59.47;101612.84;4937503;28;19928;-60
2022/10/13 03:09:37;;;;;;;6.73;2.40;;;;;;;14.78;59.23;101618.06;4901622;28;20034;-62
2022/10/13 03:15:14;;;;;;;9.45;3.00;;;;;;;14.66;59.39;101588.38;4889061;28;20041;-62
2022/10/13 03:17:51;;;;;;;12.43;4.00;;;;;;;14.80;59.69;101616.25;4915261;28;20040;-61
2022/10/13 03:20:46;;;;;;;8.00;2.70;;;;;;;14.81;60.95;101602.22;4912106;28;20339;-61
2022/10/13 03:23:18;;;;;;;;;;;;;;;14.80;60.50;101605.72;4862290;28;20283;-60
2022/10/13 03:26:01;;;;;;;6.70;2.23;;;;;;;14.82;61.10;101604.81;4909971;28;20182;-62
2022/10/13 03:28:59;;;;;;;6.27;2.40;;;;;;;14.66;60.91;101583.09;4907130;28;20283;-60
2022/10/13 03:31:48;;;;;;;7.03;2.40;;;;;;;14.69;61.44;101591.84;4876473;28;20705;-61
2022/10/13 03:34:37;;;;;;;6.17;2.53;;;;;;;14.70;62.02;101589.19;4901253;28;20047;-62
2022/10/13 03:37:42;;;;;;;7.27;2.87;;;;;;;14.69;61.86;101602.38;4848751;28;20335;-62
2022/10/13 03:40:27;;;;;;;11.40;3.57;;;;;;;14.70;62.93;101596.22;4882414;28;20316;-61
2022/10/13 03:43:08;;;;;;;28.92;5.82;;;;;;;14.68;62.55;101591.00;4890260;28;20272;-61
2022/10/13 03:48:54;;;;;;;5.93;2.63;;;;;;;14.50;62.35;101570.97;4848046;28;20336;-64
2022/10/13 03:51:36;;;;;;;6.40;2.60;;;;;;;14.45;62.17;101583.31;4825429;28;20042;-63
2022/10/13 03:54:25;;;;;;;9.57;2.73;;;;;;;14.45;62.75;101576.31;4878020;28;20336;-63
2022/10/13 03:57:15;;;;;;;4.60;2.10;;;;;;;14.39;62.54;101572.88;4896964;28;20318;-61
2022/10/13 04:00:34;;;;;;;7.43;2.33;;;;;;;14.31;61.32;101558.94;4909382;28;20280;-61
2022/10/13 04:03:09;;;;;;;8.30;2.20;;;;;;;14.31;62.33;101564.22;4908425;28;20274;-63
2022/10/13 04:05:52;;;;;;;12.33;2.87;;;;;;;14.35;61.11;101560.63;4903186;28;20288;-62
2022/10/13 04:11:43;;;;;;;4.82;2.20;;;;;;;14.34;61.06;101553.66;4904738;28;20058;-60
2022/10/13 04:14:26;;;;;;;6.53;3.58;;;;;;;14.05;61.32;101504.88;4876296;28;24740;-63
2022/10/13 04:17:12;;;;;;;9.17;2.67;;;;;;;14.35;61.29;101565.91;4832130;28;20052;-62
2022/10/13 04:20:00;;;;;;;6.73;2.30;;;;;;;14.35;60.71;101555.38;4892031;28;20268;-60
2022/10/13 04:22:54;;;;;;;7.72;2.30;;;;;;;14.35;60.56;101555.38;4885420;28;20288;-60
2022/10/13 04:25:31;;;;;;;7.07;2.93;;;;;;;14.34;60.36;101553.66;4895397;28;20257;-64
2022/10/13 04:28:15;;;;;;;9.13;3.10;;;;;;;14.20;60.13;101545.91;4863735;28;20280;-60
2022/10/13 04:30:51;;;;;;;4.23;2.80;;;;;;;14.20;60.26;101546.81;4875507;28;20061;-62
2022/10/13 04:33:37;;;;;;;10.27;3.80;;;;;;;14.17;60.32;101536.28;4896645;28;20272;-61
2022/10/13 04:36:19;;;;;;;5.45;2.63;;;;;;;14.15;59.50;101538.09;4882641;28;20056;-60
2022/10/13 04:39:12;;;;;;;5.97;3.92;;;;;;;14.29;60.42;101534.44;4937812;28;20112;-59
2022/10/13 04:41:49;;;;;;;6.93;2.75;;;;;;;14.38;60.37;101542.22;4889153;28;20120;-63
2022/10/13 04:44:32;;;;;;;;;;;;;;;14.33;59.72;101541.41;4930885;28;20041;-60
2022/10/13 04:47:12;;;;;;;7.97;2.88;;;;;;;14.23;60.02;101541.50;4925202;28;19925;-64
2022/10/13 04:50:14;;;;;;;6.00;2.40;;;;;;;14.23;59.93;101533.63;4888672;28;20103;-60
2022/10/13 04:53:02;;;;;;;5.70;2.57;;;;;;;14.26;60.48;101529.22;4952259;28;20605;-59
2022/10/13 04:55:55;;;;;;;5.80;2.50;;;;;;;14.19;60.54;101508.22;4894372;28;20268;-61
2022/10/13 04:58:41;;;;;;;6.10;2.33;;;;;;;14.32;60.10;101534.38;4914882;28;20272;-59
2022/10/13 05:01:38;;;;;;;7.53;2.50;;;;;;;14.24;60.49;101524.81;4926565;28;20081;-60
2022/10/13 05:04:31;;;;;;;10.48;2.75;;;;;;;14.17;61.33;101515.25;4851868;28;20341;-60
2022/10/13 05:07:29;;;;;;;9.15;2.38;;;;;;;13.90;61.06;101473.53;4858437;28;20046;-62
2022/10/13 05:10:22;;;;;;;3.40;2.10;;;;;;;14.15;61.67;101524.94;4895235;28;20063;-60
2022/10/13 05:13:28;;;;;;;7.00;2.42;;;;;;;14.16;61.90;101518.78;4891831;28;20054;-63
2022/10/13 05:16:09;;;;;;;7.67;2.63;;;;;;;14.17;62.46;101514.41;4902013;28;20045;-60
2022/10/13 05:18:49;;;;;;;6.03;2.75;;;;;;;14.09;62.00;101511.84;4943491;28;20204;-61
2022/10/13 05:21:36;;;;;;;9.45;2.90;;;;;;;14.03;62.43;101511.94;4918471;28;20041;-63
2022/10/13 05:24:29;;;;;;;5.68;2.75;;;;;;;13.91;62.64;101501.56;4931327;28;20049;-60
2022/10/13 05:27:25;;;;;;;12.02;5.45;;;;;;;13.95;62.89;101519.00;4925731;28;20048;-60
2022/10/13 05:30:19;;;;;;;13.07;3.80;;;;;;;13.88;62.86;101514.69;4887560;28;20357;-59
2022/10/13 05:33:13;;;;;;;9.85;2.70;;;;;;;13.90;63.04;101510.31;4898991;28;20093;-62
2022/10/13 05:36:32;;;;;;;9.07;2.70;;;;;;;13.90;63.05;101505.06;4933316;28;20048;-60
2022/10/13 05:39:20;;;;;;;6.78;2.83;;;;;;;13.89;62.62;101505.94;4918865;28;20044;-62
2022/10/13 05:42:00;;;;;;;9.80;2.65;;;;;;;13.90;62.33;101510.31;4928386;28;20050;-61
2022/10/13 05:44:36;;;;;;;;;;;;;;;13.87;62.61;101516.47;4915000;28;20079;-60
2022/10/13 05:47:15;;;;;;;10.07;2.75;;;;;;;13.85;62.19;101512.97;4926096;28;19923;-60
2022/10/13 05:50:07;;;;;;;8.15;2.80;;;;;;;13.79;62.83;101513.91;4882370;28;20041;-61
2022/10/13 05:52:54;;;;;;;11.25;3.15;;;;;;;13.51;62.86;101465.19;4936081;28;20044;-60
2022/10/13 05:55:50;;;;;;;10.10;3.00;;;;;;;13.70;62.75;101500.84;4913434;28;20060;-62
2022/10/13 05:58:53;;;;;;;7.63;2.58;;;;;;;13.07;62.11;101392.91;4902171;28;20300;-61
2022/10/13 06:02:01;;;;;;;13.02;2.78;;;;;;;13.65;62.40;101502.66;4930936;28;20139;-61
2022/10/13 06:04:54;;;;;;;10.55;2.35;;;;;;;13.59;62.91;101500.97;4884298;28;20053;-60
2022/10/13 06:07:36;;;;;;;8.23;2.50;;;;;;;13.56;63.11;101494.88;4923127;28;20060;-64
2022/10/13 06:10:11;;;;;;;8.02;3.72;;;;;;;13.56;63.54;101501.00;4913478;28;20045;-61
2022/10/13 06:12:57;;;;;;;9.10;3.10;;;;;;;13.38;64.08;101485.41;4928737;28;20208;-61
2022/10/13 06:15:39;;;;;;;14.10;3.45;;;;;;;13.16;64.67;101461.06;4950742;28;20119;-61
2022/10/13 06:18:27;;;;;;;15.85;3.25;;;;;;;13.30;65.22;101503.81;4945173;28;20040;-60
2022/10/13 06:21:08;;;;;;;14.43;3.55;;;;;;;13.13;66.36;101505.72;4936141;28;20037;-64
2022/10/13 06:23:46;;;;;;;8.68;2.97;;;;;;;12.86;66.96;101491.88;4915759;28;20316;-64
2022/10/13 06:26:34;;;;;;;12.95;3.28;;;;;;;12.74;67.72;101497.19;4900611;28;20078;-61
2022/10/13 06:29:10;;;;;;;11.57;3.75;;;;;;;12.59;68.78;101502.53;4911147;28;20044;-65
2022/10/13 06:31:45;;;;;;;;;;;;;;;12.48;69.30;101494.69;4919179;28;20050;-61
2022/10/13 06:34:26;;;;;;;14.90;4.00;;;;;;;12.37;69.82;101502.59;4924777;28;19927;-62
2022/10/13 06:37:02;;;;;;;11.00;3.28;;;;;;;12.29;70.12;101493.91;4922660;28;20297;-64
2022/10/13 06:40:01;;;;;;;12.60;3.75;;;;;;;12.21;70.71;101496.56;4913132;28;20102;-60
2022/10/13 06:42:37;;;;;;;9.93;3.35;;;;;;;11.87;70.85;101453.88;4901490;28;20041;-60
2022/10/13 06:45:29;;;;;;;7.65;2.95;;;;;;;12.09;71.22;101486.97;4914083;28;20055;-59
2022/10/13 06:48:24;;;;;;;11.07;3.40;;;;;;;12.01;71.58;101488.75;4941667;28;20063;-60
2022/10/13 06:51:14;;;;;;;13.73;2.97;;;;;;;11.96;72.04;101485.28;4902595;28;20507;-61
2022/10/13 06:54:29;;;;;;;9.35;3.53;;;;;;;11.89;72.46;101478.31;4909464;28;20048;-62
2022/10/13 06:57:34;;;;;;;9.57;2.97;;;;;;;11.84;72.75;101480.91;4871420;28;20088;-60
2022/10/13 07:00:39;;;;;;;7.82;3.08;;;;;;;11.82;72.71;101479.16;4922406;28;20125;-60
2022/10/13 07:03:25;;;;;;;8.52;2.70;;;;;;;11.79;72.46;101471.31;4910426;28;20044;-60
2022/10/13 07:06:07;;;;;;;9.30;2.72;;;;;;;11.73;72.84;101471.31;4908569;28;20050;-60
2022/10/13 07:08:49;;;;;;;10.70;3.05;;;;;;;11.60;73.25;101460.84;4911718;28;20115;-60
2022/10/13 07:11:47;;;;;;;8.85;3.10;;;;;;;11.61;73.32;101483.56;4907238;28;20239;-63
2022/10/13 07:14:26;;;;;;;11.13;3.17;;;;;;;11.09;73.44;101399.88;4927222;28;20349;-63
2022/10/13 07:20:32;;;;;;;12.00;3.42;;;;;;;11.39;74.06;101477.47;4886250;28;20045;-61
2022/10/13 07:23:16;;;;;;;11.32;3.60;;;;;;;11.42;74.14;101487.06;4932947;28;20044;-61
2022/10/13 07:26:00;;;;;;;13.82;4.13;;;;;;;11.27;74.37;101460.91;4927134;28;20082;-62
2022/10/13 07:28:59;;;;;;;13.55;3.92;;;;;;;11.29;74.62;101486.19;4950617;28;20110;-60
2022/10/13 07:31:32;;;;;;;9.70;3.25;;;;;;;11.23;74.83;101486.19;4937503;28;20045;-60
2022/10/13 07:34:33;;;;;;;14.77;3.80;;;;;;;11.14;75.11;101476.59;4906349;28;20248;-61
2022/10/13 07:37:20;;;;;;;9.32;3.58;;;;;;;11.10;75.29;101476.59;4893355;28;21256;-60
2022/10/13 07:40:07;;;;;;;14.52;3.47;;;;;;;11.05;75.44;101476.56;4868576;28;20063;-60
2022/10/13 07:42:50;;;;;;;8.77;3.25;;;;;;;10.98;75.62;101474.81;4930274;28;20044;-60
2022/10/13 07:45:32;;;;;;;10.93;3.72;;;;;;;10.91;75.87;101473.97;4884976;28;20054;-60
2022/10/13 07:48:13;;;;;;;8.85;4.13;;;;;;;10.85;75.66;101473.06;4896604;28;20477;-61
2022/10/13 07:51:04;;;;;;;14.90;3.55;;;;;;;10.78;75.86;101473.06;4899398;28;20053;-61
2022/10/13 07:53:45;;;;;;;8.00;3.00;;;;;;;10.74;75.92;101475.66;4913676;28;20044;-60
2022/10/13 07:56:28;;;;;;;9.43;3.53;;;;;;;10.66;75.94;101465.19;4942641;28;20049;-61
2022/10/13 07:59:08;;;;;;;8.93;2.97;;;;;;;10.56;75.78;101455.59;4926290;28;20214;-62
2022/10/13 08:01:46;;;;;;;9.07;3.42;;;;;;;10.54;75.88;101467.78;4916980;28;20075;-61
2022/10/13 08:04:34;;;;;;;8.95;2.92;;;;;;;10.44;75.94;101461.66;4905374;28;20044;-61
2022/10/13 08:07:28;;;;;;;12.68;2.95;;;;;;;10.41;76.05;101463.34;4891545;28;20067;-61
2022/10/13 08:12:51;;;;;;;11.48;3.47;;;;;;;10.08;76.13;101420.53;4934437;28;20056;-61
2022/10/13 08:15:38;;;;;;;13.38;4.00;;;;;;;10.33;76.51;101482.53;4915440;28;20057;-62
2022/10/13 08:18:23;;;;;;;7.05;3.35;;;;;;;10.28;76.63;101481.63;4916254;28;20281;-62
2022/10/13 08:21:23;;;;;;;9.55;3.13;;;;;;;10.28;76.83;101485.94;4953040;28;20048;-61
2022/10/13 08:24:45;;;;;;;8.43;3.20;;;;;;;10.21;76.72;101474.59;4905304;28;20148;-60
2022/10/13 08:27:27;;;;;;;12.20;3.08;;;;;;;10.26;76.21;101482.41;4904890;28;20052;-60
2022/10/13 08:30:46;;;;;;;7.57;2.95;;;;;;;10.29;75.85;101482.50;4921033;28;20123;-60
2022/10/13 08:33:28;;;;;;;7.72;3.45;;;;;;;10.28;75.71;101481.63;4883432;28;20052;-60
2022/10/13 08:36:06;;;;;;;8.73;3.40;;;;;;;10.26;75.48;101467.66;4933100;28;20067;-59
2022/10/13 08:41:44;;;;;;;8.32;3.20;;;;;;;10.27;74.87;101464.16;4883190;28;20046;-61
2022/10/13 08:44:34;;;;;;;9.57;3.17;;;;;;;10.20;74.45;101451.06;4914299;28;20041;-61
2022/10/13 08:47:55;;;;;;;9.20;2.95;;;;;;;10.27;74.03;101469.38;4948906;28;20049;-60
2022/10/13 08:50:46;;;;;;;6.65;2.70;;;;;;;10.27;73.80;101466.75;4905600;28;20040;-60
2022/10/13 08:53:48;;;;;;;10.13;3.33;;;;;;;10.25;73.45;101454.56;4906592;28;20049;-60
2022/10/13 08:56:49;;;;;;;11.68;2.95;;;;;;;10.27;73.63;101469.38;4878570;28;20045;-63
2022/10/13 08:59:27;;;;;;;5.30;2.67;;;;;;;10.32;73.22;101477.28;4940585;28;20051;-60
2022/10/13 09:02:16;;;;;;;8.25;2.80;;;;;;;10.27;73.09;101464.16;4930193;28;20415;-60
2022/10/13 09:05:15;;;;;;;9.23;3.00;;;;;;;9.66;73.08;101359.41;4892925;28;20048;-61
2022/10/13 09:11:06;;;;;;;7.60;2.72;;;;;;;10.23;73.15;101472.84;4893228;28;20124;-60
2022/10/13 09:14:07;;;;;;;9.73;2.67;;;;;;;9.98;73.38;101455.31;4915981;28;20083;-60
2022/10/13 09:16:55;;;;;;;9.00;3.17;;;;;;;10.13;73.43;101460.59;4915351;28;20044;-62
2022/10/13 09:19:49;;;;;;;8.50;3.03;;;;;;;10.25;73.63;101480.69;4913410;28;20364;-60
2022/10/13 09:22:51;;;;;;;10.50;3.80;;;;;;;10.22;73.82;101480.69;4906456;28;20127;-61
2022/10/13 09:25:29;;;;;;;11.10;3.80;;;;;;;10.24;73.89;101474.59;4895722;28;20483;-61
2022/10/13 09:28:23;;;;;;;12.50;4.40;;;;;;;10.21;74.32;101461.53;4939102;28;20104;-61
2022/10/13 09:31:47;;;;;;;12.73;5.80;;;;;;;10.28;74.50;101471.19;4927357;28;20086;-61
2022/10/13 09:34:37;;;;;;;12.07;5.72;;;;;;;10.26;75.04;101467.66;4906884;28;20056;-63
2022/10/13 09:37:25;;;;;;;11.48;5.25;;;;;;;10.24;75.18;101448.47;4868080;28;20048;-61
2022/10/13 09:40:17;;;;;;;8.38;4.20;;;;;;;10.29;75.42;101452.00;4923492;28;20062;-61
2022/10/13 09:43:10;;;;;;;10.52;4.30;;;;;;;10.23;75.32;101445.84;4907129;28;20056;-60
2022/10/13 09:45:56;;;;;;;7.57;3.72;;;;;;;10.32;75.60;101465.06;4947579;28;20052;-59
2022/10/13 09:48:46;;;;;;;11.30;3.50;;;;;;;10.32;75.67;101457.22;4912449;28;20056;-61
2022/10/13 09:51:43;;;;;;;8.65;2.78;;;;;;;10.11;75.46;101412.75;4897118;28;20056;-60
2022/10/13 09:54:39;;;;;;;10.15;2.92;;;;;;;10.36;75.78;101458.13;4899191;28;22522;-62
2022/10/13 09:57:26;;;;;;;11.40;3.00;;;;;;;10.34;75.96;101460.72;4922768;28;20067;-60
2022/10/13 10:00:16;;;;;;;12.18;3.10;;;;;;;10.24;75.95;101443.25;4906040;28;20053;-61
2022/10/13 10:03:08;;;;;;;6.38;2.50;;;;;;;10.36;75.86;101453.78;4913827;28;20052;-61
2022/10/13 10:05:58;;;;;;;8.18;3.05;;;;;;;10.31;75.75;101445.06;4917833;28;20046;-61
2022/10/13 10:09:05;;;;;;;;;;;;;;;10.38;75.48;101456.38;4925201;28;20055;-65
2022/10/13 10:14:34;;;;;;;6.28;3.22;;;;;;;10.21;74.91;101409.28;5128183;23;20043;-61
2022/10/13 10:17:22;;;;;;;7.55;2.83;;;;;;;10.42;74.61;101447.69;4790475;28;20059;-62
2022/10/13 10:20:19;;;;;;;8.18;3.25;;;;;;;10.39;74.69;101444.22;4788587;28;20047;-62
2022/10/13 10:23:08;;;;;;;8.80;3.28;;;;;;;10.28;74.58;101434.59;4837951;28;20055;-63
2022/10/13 10:25:52;;;;;;;11.55;4.72;;;;;;;10.21;75.61;101442.34;4776371;29;20065;-62
2022/10/13 10:28:59;;;;;;;12.43;3.97;;;;;;;10.19;75.51;101439.75;4822148;28;20061;-63
2022/10/13 10:32:05;;;;;;;9.38;3.92;;;;;;;10.14;75.75;101446.69;4823484;28;20082;-62
2022/10/13 10:34:50;;;;;;;8.13;3.92;;;;;;;10.06;76.12;101444.06;4748192;29;20047;-62
2022/10/13 10:38:10;;;;;;;13.50;3.88;;;;;;;10.04;76.47;101439.69;4892517;28;20651;-62
2022/10/13 10:40:58;;;;;;;9.30;3.20;;;;;;;9.72;76.94;101401.22;4786914;28;20122;-62
2022/10/13 10:43:53;;;;;;;5.75;2.95;;;;;;;10.02;76.11;101431.84;4802836;28;20047;-63
2022/10/13 10:46:31;;;;;;;6.68;3.00;;;;;;;10.15;74.88;101443.19;4751500;28;20047;-62
2022/10/13 10:55:35;;;;;;;7.85;3.85;;;;;;;10.19;73.71;101428.44;5007970;23;20306;-63
2022/10/13 10:58:25;;;;;;;6.93;3.30;;;;;;;10.22;73.49;101433.66;4794574;28;20051;-62
2022/10/13 11:01:35;;;;;;;11.00;3.77;;;;;;;10.14;74.01;101431.88;4775388;28;20189;-63
2022/10/13 11:04:49;;;;;;;11.55;4.38;;;;;;;10.03;75.13;101424.88;4790844;28;20294;-62
2022/10/13 11:07:53;;;;;;;10.40;3.95;;;;;;;9.99;75.35;101425.75;4818213;28;20055;-63
2022/10/13 11:10:30;;;;;;;9.73;4.20;;;;;;;9.93;75.67;101417.00;4797253;28;20044;-62
2022/10/13 11:13:24;;;;;;;7.75;3.28;;;;;;;9.41;76.00;101351.50;4804090;28;20059;-62
2022/10/13 11:16:28;;;;;;;9.98;3.55;;;;;;;9.81;76.40;101413.44;4810109;28;20061;-63
2022/10/13 11:22:33;;;;;;;10.93;3.08;;;;;;;9.85;76.28;101426.53;4787546;28;20087;-62
2022/10/13 11:25:43;;;;;;;6.40;3.17;;;;;;;9.85;75.88;101423.91;4798568;28;20047;-62
2022/10/13 11:28:48;;;;;;;6.78;3.15;;;;;;;9.91;74.92;101429.19;4790390;28;20047;-62
2022/10/13 11:31:57;;;;;;;10.93;4.10;;;;;;;9.84;74.84;101422.19;4894425;28;20074;-63
2022/10/13 11:34:35;;;;;;;9.88;3.13;;;;;;;9.78;75.39;101416.91;4829679;28;20050;-62
2022/10/13 11:37:30;;;;;;;8.60;2.90;;;;;;;9.81;74.95;101422.16;4866299;28;20073;-63
2022/10/13 11:40:30;;;;;;;5.22;2.50;;;;;;;10.02;74.21;101420.53;4966344;28;20042;-64
2022/10/13 11:43:46;;;;;;;9.45;3.00;;;;;;;10.08;73.79;101420.53;4964406;28;20086;-62
2022/10/13 11:47:01;;;;;;;10.27;2.95;;;;;;;10.14;73.67;101428.41;4950748;28;20055;-62
2022/10/13 11:50:04;;;;;;;8.60;3.25;;;;;;;10.01;74.45;101435.31;4774403;29;20364;-63
2022/10/13 11:53:07;;;;;;;10.88;3.83;;;;;;;9.88;75.42;101431.78;4883849;28;20049;-62
2022/10/13 11:56:04;;;;;;;14.20;3.70;;;;;;;9.79;76.19;101434.34;4943853;29;20063;-62
2022/10/13 11:58:59;;;;;;;10.00;4.07;;;;;;;9.72;76.50;101429.94;4900752;29;20062;-62
2022/10/13 12:01:45;;;;;;;10.20;3.95;;;;;;;9.68;76.71;101430.78;4941535;29;20043;-63
2022/10/13 12:04:35;;;;;;;9.05;3.90;;;;;;;9.62;77.34;101425.53;4805528;28;20262;-62
2022/10/13 12:07:25;;;;;;;10.35;4.25;;;;;;;9.56;78.09;101426.38;4793217;28;20055;-63
2022/10/13 12:10:20;;;;;;;12.88;4.22;;;;;;;9.41;77.99;101406.28;4793962;28;20051;-63
2022/10/13 12:12:59;;;;;;;12.32;4.43;;;;;;;9.49;78.52;101433.28;4832485;28;20541;-63
2022/10/13 12:19:03;;;;;;;5.60;3.00;;;;;;;9.68;78.88;101409.91;4810028;28;20083;-62
2022/10/13 12:22:10;;;;;;;8.30;2.88;;;;;;;9.89;78.57;101415.25;4796904;28;20058;-62
2022/10/13 12:25:04;;;;;;;8.20;3.13;;;;;;;9.98;78.31;101408.31;4862926;28;20050;-61
2022/10/13 12:31:00;;;;;;;8.60;2.97;;;;;;;10.18;78.20;101406.63;4960373;28;20091;-62
2022/10/13 12:34:09;;;;;;;7.40;2.75;;;;;;;10.24;78.24;101406.69;4950812;28;20390;-62
2022/10/13 12:37:17;;;;;;;11.05;3.47;;;;;;;10.28;78.18;101408.47;4815769;28;20057;-62
2022/10/13 12:39:54;;;;;;;13.23;3.30;;;;;;;10.24;78.26;101401.47;4828835;28;20110;-62
2022/10/13 12:45:38;;;;;;;10.02;3.63;;;;;;;10.38;78.53;101411.97;4825874;28;20051;-63
2022/10/13 12:48:47;;;;;;;9.02;3.08;;;;;;;10.35;78.69;101415.44;4826123;28;20335;-62
2022/10/13 12:51:32;;;;;;;7.20;3.03;;;;;;;10.33;79.19;101406.75;4826697;28;20236;-62
2022/10/13 12:54:18;;;;;;;7.38;2.85;;;;;;;10.34;79.45;101408.47;4922332;29;20066;-61
2022/10/13 12:57:04;;;;;;;12.82;3.40;;;;;;;10.35;80.03;101402.38;4940187;29;20064;-63
2022/10/13 12:59:55;;;;;;;7.10;2.90;;;;;;;10.38;79.81;101396.28;4940190;29;20055;-63
2022/10/13 13:02:40;;;;;;;11.32;3.38;;;;;;;10.35;80.42;101391.94;4920636;28;20629;-64
2022/10/13 13:05:41;;;;;;;11.48;3.33;;;;;;;10.40;80.45;101393.69;4804506;28;20051;-63
2022/10/13 13:08:30;;;;;;;11.07;3.15;;;;;;;10.32;80.64;101373.63;4764348;28;20387;-62
2022/10/13 13:11:28;;;;;;;8.88;2.88;;;;;;;10.35;80.89;101373.63;4804257;28;20078;-62
2022/10/13 13:14:41;;;;;;;9.85;3.20;;;;;;;10.32;81.29;101376.25;4812819;28;20051;-62
2022/10/13 13:17:35;;;;;;;8.57;3.15;;;;;;;9.67;81.61;101262.03;4815903;28;20054;-61
2022/10/13 13:20:28;;;;;;;13.50;2.92;;;;;;;10.27;82.08;101370.09;4943819;29;20232;-62
2022/10/13 13:23:10;;;;;;;15.98;3.65;;;;;;;10.32;82.09;101389.31;4943351;29;20055;-63
2022/10/13 13:26:03;;;;;;;14.98;5.63;;;;;;;10.12;81.80;101386.59;4915179;28;20069;-62
2022/10/13 13:28:41;;;;;;;;;;;;;;;9.96;82.03;101389.16;4790163;28;20059;-63
2022/10/13 13:31:31;;;;;;;15.45;5.68;;;;;;;9.84;82.37;101384.75;4804331;28;19973;-62
2022/10/13 13:34:09;;;;;;;19.50;7.15;;;;;;;9.74;82.78;101394.28;4769121;28;20066;-63
2022/10/13 13:36:58;;;;;;;20.50;8.95;;;;;;;9.57;83.21;101390.72;4787102;28;20051;-62
2022/10/13 13:40:06;;;;;;;18.13;8.90;;;;;;;9.41;84.28;101390.63;4823184;28;20055;-62
2022/10/13 13:42:45;;;;;;;19.80;8.82;;;;;;;9.30;84.99;101392.28;4807833;28;20327;-62
2022/10/13 13:45:38;;;;;;;18.20;9.50;;;;;;;9.17;85.41;101387.84;4815165;28;20615;-62
2022/10/13 13:48:31;;;;;;;19.90;9.68;;;;;;;9.09;86.21;101372.13;4782499;28;20055;-63
2022/10/13 13:51:13;;;;;;;16.85;8.65;;;;;;;9.01;86.77;101373.78;4803762;28;20053;-63
2022/10/13 13:53:50;;;;;;;19.85;9.32;;;;;;;8.94;87.23;101367.69;4943848;29;20043;-63
2022/10/13 13:56:44;;;;;;;;;;;;;;;8.97;87.89;101382.47;4938810;29;20059;-63
2022/10/13 14:02:24;;;;;;;20.52;8.82;;;;;;;8.80;87.64;101374.50;4904492;28;20074;-62
2022/10/13 14:05:14;;;;;;;23.88;8.18;;;;;;;8.38;87.81;101328.91;4794553;28;20077;-63